sensor_id;sensor_type;location;lat;lon;timestamp;P1;durP1;ratioP1;P2;durP2;ratioP2
20397;SDS011;10358;49.590;11.030;2022-08-14T00:00:49;6.80;;;5.85;;
20397;SDS011;10358;49.590;11.030;2022-08-14T00:03:19;9.18;;;5.75;;
20397;SDS011;10358;49.590;11.030;2022-08-14T00:05:51;6.53;;;5.80;;
20397;SDS011;10358;49.590;11.030;2022-08-14T00:08:17;9.00;;;5.50;;
20397;SDS011;10358;49.590;11.030;2022-08-14T00:10:43;7.07;;;6.18;;
20397;SDS011;10358;49.590;11.030;2022-08-14T00:13:09;8.52;;;5.93;;
20397;SDS011;10358;49.590;11.030;2022-08-14T00:15:36;7.53;;;5.50;;
20397;SDS011;10358;49.590;11.030;2022-08-14T00:18:04;7.82;;;6.15;;
20397;SDS011;10358;49.590;11.030;2022-08-14T00:20:33;6.65;;;5.93;;
20397;SDS011;10358;49.590;11.030;2022-08-14T00:23:02;6.45;;;5.70;;
20397;SDS011;10358;49.590;11.030;2022-08-14T00:25:28;7.90;;;6.03;;
20397;SDS011;10358;49.590;11.030;2022-08-14T00:27:54;6.82;;;6.00;;
20397;SDS011;10358;49.590;11.030;2022-08-14T00:30:20;7.20;;;5.72;;
20397;SDS011;10358;49.590;11.030;2022-08-14T00:32:46;6.70;;;5.80;;
20397;SDS011;10358;49.590;11.030;2022-08-14T00:35:12;8.40;;;6.22;;
20397;SDS011;10358;49.590;11.030;2022-08-14T00:37:39;7.82;;;6.00;;
20397;SDS011;10358;49.590;11.030;2022-08-14T00:40:07;6.70;;;5.60;;
20397;SDS011;10358;49.590;11.030;2022-08-14T00:42:34;7.25;;;6.07;;
20397;SDS011;10358;49.590;11.030;2022-08-14T00:45:00;7.35;;;5.90;;
20397;SDS011;10358;49.590;11.030;2022-08-14T00:47:27;6.72;;;6.03;;
20397;SDS011;10358;49.590;11.030;2022-08-14T00:49:53;11.20;;;6.07;;
20397;SDS011;10358;49.590;11.030;2022-08-14T00:52:22;6.55;;;5.68;;
20397;SDS011;10358;49.590;11.030;2022-08-14T00:54:49;6.80;;;6.10;;
20397;SDS011;10358;49.590;11.030;2022-08-14T00:57:21;8.45;;;6.50;;
20397;SDS011;10358;49.590;11.030;2022-08-14T00:59:48;6.80;;;6.10;;
20397;SDS011;10358;49.590;11.030;2022-08-14T01:02:15;8.45;;;6.10;;
20397;SDS011;10358;49.590;11.030;2022-08-14T01:04:43;6.60;;;5.75;;
20397;SDS011;10358;49.590;11.030;2022-08-14T01:07:10;7.88;;;6.72;;
20397;SDS011;10358;49.590;11.030;2022-08-14T01:09:36;8.55;;;6.35;;
20397;SDS011;10358;49.590;11.030;2022-08-14T01:12:03;7.72;;;6.82;;
20397;SDS011;10358;49.590;11.030;2022-08-14T01:14:29;8.48;;;6.95;;
20397;SDS011;10358;49.590;11.030;2022-08-14T01:16:55;8.07;;;6.75;;
20397;SDS011;10358;49.590;11.030;2022-08-14T01:19:21;8.63;;;7.10;;
20397;SDS011;10358;49.590;11.030;2022-08-14T01:22:07;10.40;;;7.38;;
20397;SDS011;10358;49.590;11.030;2022-08-14T01:24:34;8.77;;;6.72;;
20397;SDS011;10358;49.590;11.030;2022-08-14T01:27:00;8.50;;;6.55;;
20397;SDS011;10358;49.590;11.030;2022-08-14T01:29:29;9.52;;;6.95;;
20397;SDS011;10358;49.590;11.030;2022-08-14T01:32:00;9.55;;;6.85;;
20397;SDS011;10358;49.590;11.030;2022-08-14T01:34:27;8.90;;;7.03;;
20397;SDS011;10358;49.590;11.030;2022-08-14T01:36:53;8.02;;;6.10;;
20397;SDS011;10358;49.590;11.030;2022-08-14T01:39:19;9.35;;;6.95;;
20397;SDS011;10358;49.590;11.030;2022-08-14T01:41:45;8.18;;;6.95;;
20397;SDS011;10358;49.590;11.030;2022-08-14T01:44:20;8.02;;;6.70;;
20397;SDS011;10358;49.590;11.030;2022-08-14T01:46:48;7.20;;;6.03;;
20397;SDS011;10358;49.590;11.030;2022-08-14T01:49:18;8.20;;;6.30;;
20397;SDS011;10358;49.590;11.030;2022-08-14T01:51:44;7.90;;;6.75;;
20397;SDS011;10358;49.590;11.030;2022-08-14T01:54:12;8.13;;;6.93;;
20397;SDS011;10358;49.590;11.030;2022-08-14T01:56:44;7.78;;;6.72;;
20397;SDS011;10358;49.590;11.030;2022-08-14T02:01:41;8.02;;;6.88;;
20397;SDS011;10358;49.590;11.030;2022-08-14T02:04:08;7.75;;;6.82;;
20397;SDS011;10358;49.590;11.030;2022-08-14T02:06:35;10.77;;;6.57;;
20397;SDS011;10358;49.590;11.030;2022-08-14T02:09:05;10.67;;;6.83;;
20397;SDS011;10358;49.590;11.030;2022-08-14T02:11:32;9.85;;;7.55;;
20397;SDS011;10358;49.590;11.030;2022-08-14T02:16:28;7.60;;;6.68;;
20397;SDS011;10358;49.590;11.030;2022-08-14T02:19:00;9.50;;;7.03;;
20397;SDS011;10358;49.590;11.030;2022-08-14T02:21:29;7.93;;;7.13;;
20397;SDS011;10358;49.590;11.030;2022-08-14T02:23:57;10.65;;;7.20;;
20397;SDS011;10358;49.590;11.030;2022-08-14T02:26:24;9.50;;;7.00;;
20397;SDS011;10358;49.590;11.030;2022-08-14T02:28:54;7.63;;;6.80;;
20397;SDS011;10358;49.590;11.030;2022-08-14T02:31:24;7.72;;;6.80;;
20397;SDS011;10358;49.590;11.030;2022-08-14T02:33:55;7.72;;;6.70;;
20397;SDS011;10358;49.590;11.030;2022-08-14T02:36:20;10.07;;;6.75;;
20397;SDS011;10358;49.590;11.030;2022-08-14T02:38:46;9.30;;;6.78;;
20397;SDS011;10358;49.590;11.030;2022-08-14T02:41:13;8.88;;;6.88;;
20397;SDS011;10358;49.590;11.030;2022-08-14T02:43:39;8.07;;;6.95;;
20397;SDS011;10358;49.590;11.030;2022-08-14T02:46:06;7.75;;;6.53;;
20397;SDS011;10358;49.590;11.030;2022-08-14T02:48:34;8.63;;;6.80;;
20397;SDS011;10358;49.590;11.030;2022-08-14T02:51:04;9.53;;;7.20;;
20397;SDS011;10358;49.590;11.030;2022-08-14T02:53:31;8.38;;;7.10;;
20397;SDS011;10358;49.590;11.030;2022-08-14T02:55:58;9.90;;;7.10;;
20397;SDS011;10358;49.590;11.030;2022-08-14T02:58:25;8.20;;;7.07;;
20397;SDS011;10358;49.590;11.030;2022-08-14T03:00:51;10.18;;;7.80;;
20397;SDS011;10358;49.590;11.030;2022-08-14T03:03:17;10.05;;;8.38;;
20397;SDS011;10358;49.590;11.030;2022-08-14T03:05:44;9.13;;;7.70;;
20397;SDS011;10358;49.590;11.030;2022-08-14T03:08:11;12.32;;;8.43;;
20397;SDS011;10358;49.590;11.030;2022-08-14T03:10:38;10.18;;;8.35;;
20397;SDS011;10358;49.590;11.030;2022-08-14T03:13:04;10.02;;;8.40;;
20397;SDS011;10358;49.590;11.030;2022-08-14T03:15:30;12.40;;;8.25;;
20397;SDS011;10358;49.590;11.030;2022-08-14T03:18:03;9.43;;;8.38;;
20397;SDS011;10358;49.590;11.030;2022-08-14T03:20:33;9.27;;;8.05;;
20397;SDS011;10358;49.590;11.030;2022-08-14T03:22:59;9.93;;;7.83;;
20397;SDS011;10358;49.590;11.030;2022-08-14T03:25:26;7.88;;;6.72;;
20397;SDS011;10358;49.590;11.030;2022-08-14T03:27:55;9.75;;;8.20;;
20397;SDS011;10358;49.590;11.030;2022-08-14T03:30:21;9.55;;;7.78;;
20397;SDS011;10358;49.590;11.030;2022-08-14T03:32:46;9.80;;;7.90;;
20397;SDS011;10358;49.590;11.030;2022-08-14T03:35:12;12.70;;;8.05;;
20397;SDS011;10358;49.590;11.030;2022-08-14T03:37:38;9.75;;;7.95;;
20397;SDS011;10358;49.590;11.030;2022-08-14T03:40:03;10.65;;;8.65;;
20397;SDS011;10358;49.590;11.030;2022-08-14T03:42:30;11.07;;;8.45;;
20397;SDS011;10358;49.590;11.030;2022-08-14T03:44:56;10.50;;;7.93;;
20397;SDS011;10358;49.590;11.030;2022-08-14T03:47:22;12.48;;;8.25;;
20397;SDS011;10358;49.590;11.030;2022-08-14T03:49:49;10.93;;;8.60;;
20397;SDS011;10358;49.590;11.030;2022-08-14T03:52:14;9.53;;;8.17;;
20397;SDS011;10358;49.590;11.030;2022-08-14T03:54:40;10.90;;;8.32;;
20397;SDS011;10358;49.590;11.030;2022-08-14T03:57:06;9.38;;;8.30;;
20397;SDS011;10358;49.590;11.030;2022-08-14T03:59:32;14.63;;;8.40;;
20397;SDS011;10358;49.590;11.030;2022-08-14T04:01:58;11.52;;;8.27;;
20397;SDS011;10358;49.590;11.030;2022-08-14T04:04:27;10.82;;;8.38;;
20397;SDS011;10358;49.590;11.030;2022-08-14T04:06:54;9.38;;;8.10;;
20397;SDS011;10358;49.590;11.030;2022-08-14T04:09:19;11.93;;;8.02;;
20397;SDS011;10358;49.590;11.030;2022-08-14T04:11:45;10.02;;;8.68;;
20397;SDS011;10358;49.590;11.030;2022-08-14T04:14:11;10.57;;;8.45;;
20397;SDS011;10358;49.590;11.030;2022-08-14T04:16:38;9.93;;;8.07;;
20397;SDS011;10358;49.590;11.030;2022-08-14T04:19:06;13.80;;;9.23;;
20397;SDS011;10358;49.590;11.030;2022-08-14T04:21:32;11.35;;;9.05;;
20397;SDS011;10358;49.590;11.030;2022-08-14T04:23:58;12.45;;;9.40;;
20397;SDS011;10358;49.590;11.030;2022-08-14T04:26:26;9.90;;;8.23;;
20397;SDS011;10358;49.590;11.030;2022-08-14T04:28:54;10.93;;;8.18;;
20397;SDS011;10358;49.590;11.030;2022-08-14T04:31:20;10.65;;;8.50;;
20397;SDS011;10358;49.590;11.030;2022-08-14T04:33:47;9.65;;;8.10;;
20397;SDS011;10358;49.590;11.030;2022-08-14T04:36:13;11.00;;;8.82;;
20397;SDS011;10358;49.590;11.030;2022-08-14T04:38:38;9.95;;;8.57;;
20397;SDS011;10358;49.590;11.030;2022-08-14T04:41:22;11.33;;;9.03;;
20397;SDS011;10358;49.590;11.030;2022-08-14T04:44:18;10.70;;;8.98;;
20397;SDS011;10358;49.590;11.030;2022-08-14T04:46:44;11.23;;;8.80;;
20397;SDS011;10358;49.590;11.030;2022-08-14T04:49:30;15.48;;;9.55;;
20397;SDS011;10358;49.590;11.030;2022-08-14T04:51:55;14.38;;;9.32;;
20397;SDS011;10358;49.590;11.030;2022-08-14T04:54:22;12.90;;;9.00;;
20397;SDS011;10358;49.590;11.030;2022-08-14T04:56:52;11.32;;;9.02;;
20397;SDS011;10358;49.590;11.030;2022-08-14T04:59:19;13.05;;;9.18;;
20397;SDS011;10358;49.590;11.030;2022-08-14T05:01:45;13.07;;;9.52;;
20397;SDS011;10358;49.590;11.030;2022-08-14T05:04:10;12.93;;;10.43;;
20397;SDS011;10358;49.590;11.030;2022-08-14T05:06:37;13.05;;;9.68;;
20397;SDS011;10358;49.590;11.030;2022-08-14T05:09:03;11.75;;;10.38;;
20397;SDS011;10358;49.590;11.030;2022-08-14T05:11:29;18.00;;;10.95;;
20397;SDS011;10358;49.590;11.030;2022-08-14T05:13:57;11.63;;;10.02;;
20397;SDS011;10358;49.590;11.030;2022-08-14T05:16:25;10.88;;;9.73;;
20397;SDS011;10358;49.590;11.030;2022-08-14T05:18:53;13.60;;;10.38;;
20397;SDS011;10358;49.590;11.030;2022-08-14T05:21:19;15.73;;;11.85;;
20397;SDS011;10358;49.590;11.030;2022-08-14T05:23:45;14.98;;;11.00;;
20397;SDS011;10358;49.590;11.030;2022-08-14T05:26:11;17.30;;;10.90;;
20397;SDS011;10358;49.590;11.030;2022-08-14T05:28:38;13.45;;;9.20;;
20397;SDS011;10358;49.590;11.030;2022-08-14T05:31:07;12.35;;;9.88;;
20397;SDS011;10358;49.590;11.030;2022-08-14T05:33:33;12.30;;;10.00;;
20397;SDS011;10358;49.590;11.030;2022-08-14T05:36:01;13.35;;;10.45;;
20397;SDS011;10358;49.590;11.030;2022-08-14T05:38:31;14.65;;;10.90;;
20397;SDS011;10358;49.590;11.030;2022-08-14T05:41:09;12.18;;;9.98;;
20397;SDS011;10358;49.590;11.030;2022-08-14T05:43:39;14.38;;;10.32;;
20397;SDS011;10358;49.590;11.030;2022-08-14T05:46:06;12.13;;;10.45;;
20397;SDS011;10358;49.590;11.030;2022-08-14T05:48:35;13.60;;;10.85;;
20397;SDS011;10358;49.590;11.030;2022-08-14T05:51:00;12.68;;;9.90;;
20397;SDS011;10358;49.590;11.030;2022-08-14T05:53:26;13.90;;;10.57;;
20397;SDS011;10358;49.590;11.030;2022-08-14T05:55:53;13.85;;;10.10;;
20397;SDS011;10358;49.590;11.030;2022-08-14T05:58:19;17.77;;;9.93;;
20397;SDS011;10358;49.590;11.030;2022-08-14T06:00:45;13.38;;;10.32;;
20397;SDS011;10358;49.590;11.030;2022-08-14T06:03:12;13.07;;;9.52;;
20397;SDS011;10358;49.590;11.030;2022-08-14T06:05:41;11.07;;;9.57;;
20397;SDS011;10358;49.590;11.030;2022-08-14T06:10:45;11.25;;;8.63;;
20397;SDS011;10358;49.590;11.030;2022-08-14T06:13:11;13.05;;;10.13;;
20397;SDS011;10358;49.590;11.030;2022-08-14T06:15:38;13.68;;;10.70;;
20397;SDS011;10358;49.590;11.030;2022-08-14T06:18:04;11.10;;;9.27;;
20397;SDS011;10358;49.590;11.030;2022-08-14T06:20:29;10.02;;;8.77;;
20397;SDS011;10358;49.590;11.030;2022-08-14T06:22:55;10.10;;;9.00;;
20397;SDS011;10358;49.590;11.030;2022-08-14T06:25:21;11.40;;;9.10;;
20397;SDS011;10358;49.590;11.030;2022-08-14T06:27:47;8.98;;;8.02;;
20397;SDS011;10358;49.590;11.030;2022-08-14T06:30:14;10.32;;;9.18;;
20397;SDS011;10358;49.590;11.030;2022-08-14T06:32:42;13.57;;;8.93;;
20397;SDS011;10358;49.590;11.030;2022-08-14T06:35:09;9.05;;;7.30;;
20397;SDS011;10358;49.590;11.030;2022-08-14T06:37:39;7.57;;;6.70;;
20397;SDS011;10358;49.590;11.030;2022-08-14T06:40:10;8.82;;;7.20;;
20397;SDS011;10358;49.590;11.030;2022-08-14T06:42:38;11.02;;;7.35;;
20397;SDS011;10358;49.590;11.030;2022-08-14T06:45:04;8.70;;;7.05;;
20397;SDS011;10358;49.590;11.030;2022-08-14T06:47:34;7.50;;;6.63;;
20397;SDS011;10358;49.590;11.030;2022-08-14T06:50:02;7.35;;;6.47;;
20397;SDS011;10358;49.590;11.030;2022-08-14T06:52:30;8.32;;;6.63;;
20397;SDS011;10358;49.590;11.030;2022-08-14T06:54:56;7.40;;;5.97;;
20397;SDS011;10358;49.590;11.030;2022-08-14T06:57:21;8.13;;;6.70;;
20397;SDS011;10358;49.590;11.030;2022-08-14T06:59:48;8.60;;;6.80;;
20397;SDS011;10358;49.590;11.030;2022-08-14T07:02:13;7.00;;;5.82;;
20397;SDS011;10358;49.590;11.030;2022-08-14T07:04:58;9.32;;;6.50;;
20397;SDS011;10358;49.590;11.030;2022-08-14T07:07:42;7.78;;;5.82;;
20397;SDS011;10358;49.590;11.030;2022-08-14T07:10:08;8.32;;;5.70;;
20397;SDS011;10358;49.590;11.030;2022-08-14T07:12:34;9.02;;;6.55;;
20397;SDS011;10358;49.590;11.030;2022-08-14T07:15:00;7.30;;;6.35;;
20397;SDS011;10358;49.590;11.030;2022-08-14T07:17:25;8.05;;;6.03;;
20397;SDS011;10358;49.590;11.030;2022-08-14T07:19:51;9.18;;;6.30;;
20397;SDS011;10358;49.590;11.030;2022-08-14T07:22:17;8.23;;;5.93;;
20397;SDS011;10358;49.590;11.030;2022-08-14T07:24:42;9.20;;;5.70;;
20397;SDS011;10358;49.590;11.030;2022-08-14T07:27:08;7.47;;;6.13;;
20397;SDS011;10358;49.590;11.030;2022-08-14T07:29:34;7.72;;;6.22;;
20397;SDS011;10358;49.590;11.030;2022-08-14T07:31:59;7.38;;;5.97;;
20397;SDS011;10358;49.590;11.030;2022-08-14T07:34:25;8.18;;;5.90;;
20397;SDS011;10358;49.590;11.030;2022-08-14T07:36:50;7.80;;;6.07;;
20397;SDS011;10358;49.590;11.030;2022-08-14T07:39:16;8.43;;;6.00;;
20397;SDS011;10358;49.590;11.030;2022-08-14T07:41:42;6.32;;;5.70;;
20397;SDS011;10358;49.590;11.030;2022-08-14T07:44:08;7.88;;;5.78;;
20397;SDS011;10358;49.590;11.030;2022-08-14T07:46:35;6.28;;;5.40;;
20397;SDS011;10358;49.590;11.030;2022-08-14T07:49:02;6.03;;;5.30;;
20397;SDS011;10358;49.590;11.030;2022-08-14T07:51:28;8.32;;;5.40;;
20397;SDS011;10358;49.590;11.030;2022-08-14T07:53:54;8.63;;;5.28;;
20397;SDS011;10358;49.590;11.030;2022-08-14T07:56:21;6.20;;;5.55;;
20397;SDS011;10358;49.590;11.030;2022-08-14T07:58:47;6.18;;;5.30;;
20397;SDS011;10358;49.590;11.030;2022-08-14T08:01:12;14.88;;;5.90;;
20397;SDS011;10358;49.590;11.030;2022-08-14T08:03:39;6.90;;;5.15;;
20397;SDS011;10358;49.590;11.030;2022-08-14T08:06:07;5.85;;;5.25;;
20397;SDS011;10358;49.590;11.030;2022-08-14T08:08:32;8.55;;;5.57;;
20397;SDS011;10358;49.590;11.030;2022-08-14T08:10:58;6.38;;;5.18;;
20397;SDS011;10358;49.590;11.030;2022-08-14T08:13:25;5.78;;;5.18;;
20397;SDS011;10358;49.590;11.030;2022-08-14T08:15:53;5.97;;;5.07;;
20397;SDS011;10358;49.590;11.030;2022-08-14T08:18:22;5.80;;;4.70;;
20397;SDS011;10358;49.590;11.030;2022-08-14T08:20:49;6.53;;;4.35;;
20397;SDS011;10358;49.590;11.030;2022-08-14T08:23:18;6.32;;;4.93;;
20397;SDS011;10358;49.590;11.030;2022-08-14T08:25:46;6.00;;;4.45;;
20397;SDS011;10358;49.590;11.030;2022-08-14T08:28:14;4.35;;;3.95;;
20397;SDS011;10358;49.590;11.030;2022-08-14T08:30:45;4.82;;;4.22;;
20397;SDS011;10358;49.590;11.030;2022-08-14T08:33:13;5.20;;;4.50;;
20397;SDS011;10358;49.590;11.030;2022-08-14T08:35:41;4.60;;;4.10;;
20397;SDS011;10358;49.590;11.030;2022-08-14T08:38:09;4.70;;;4.18;;
20397;SDS011;10358;49.590;11.030;2022-08-14T08:40:49;4.65;;;4.15;;
20397;SDS011;10358;49.590;11.030;2022-08-14T08:43:32;5.03;;;3.72;;
20397;SDS011;10358;49.590;11.030;2022-08-14T08:46:00;6.05;;;4.10;;
20397;SDS011;10358;49.590;11.030;2022-08-14T08:48:26;10.07;;;4.15;;
20397;SDS011;10358;49.590;11.030;2022-08-14T08:51:18;7.63;;;4.65;;
20397;SDS011;10358;49.590;11.030;2022-08-14T08:54:15;8.07;;;4.60;;
20397;SDS011;10358;49.590;11.030;2022-08-14T09:02:14;5.05;;;4.05;;
20397;SDS011;10358;49.590;11.030;2022-08-14T09:04:40;6.03;;;4.10;;
20397;SDS011;10358;49.590;11.030;2022-08-14T09:07:08;8.52;;;4.63;;
20397;SDS011;10358;49.590;11.030;2022-08-14T09:09:35;6.63;;;4.78;;
20397;SDS011;10358;49.590;11.030;2022-08-14T09:12:15;5.60;;;5.00;;
20397;SDS011;10358;49.590;11.030;2022-08-14T09:14:41;7.28;;;4.80;;
20397;SDS011;10358;49.590;11.030;2022-08-14T09:17:07;7.35;;;4.78;;
20397;SDS011;10358;49.590;11.030;2022-08-14T09:19:34;5.72;;;4.88;;
20397;SDS011;10358;49.590;11.030;2022-08-14T09:22:01;5.47;;;4.70;;
20397;SDS011;10358;49.590;11.030;2022-08-14T09:24:28;5.60;;;4.70;;
20397;SDS011;10358;49.590;11.030;2022-08-14T09:26:54;5.88;;;4.80;;
20397;SDS011;10358;49.590;11.030;2022-08-14T09:29:19;5.32;;;4.40;;
20397;SDS011;10358;49.590;11.030;2022-08-14T09:31:46;5.18;;;4.50;;
20397;SDS011;10358;49.590;11.030;2022-08-14T09:39:40;6.30;;;4.50;;
20397;SDS011;10358;49.590;11.030;2022-08-14T09:42:33;4.93;;;4.40;;
20397;SDS011;10358;49.590;11.030;2022-08-14T09:45:27;5.90;;;4.38;;
20397;SDS011;10358;49.590;11.030;2022-08-14T09:47:57;6.55;;;4.63;;
20397;SDS011;10358;49.590;11.030;2022-08-14T09:50:29;5.10;;;4.15;;
20397;SDS011;10358;49.590;11.030;2022-08-14T09:53:01;7.13;;;4.32;;
20397;SDS011;10358;49.590;11.030;2022-08-14T09:55:32;6.13;;;4.63;;
20397;SDS011;10358;49.590;11.030;2022-08-14T10:03:12;5.53;;;4.50;;
20397;SDS011;10358;49.590;11.030;2022-08-14T10:05:48;5.65;;;4.82;;
20397;SDS011;10358;49.590;11.030;2022-08-14T10:08:20;6.40;;;4.70;;
20397;SDS011;10358;49.590;11.030;2022-08-14T10:10:46;6.47;;;4.60;;
20397;SDS011;10358;49.590;11.030;2022-08-14T10:13:22;5.55;;;4.50;;
20397;SDS011;10358;49.590;11.030;2022-08-14T10:15:49;5.65;;;4.72;;
20397;SDS011;10358;49.590;11.030;2022-08-14T10:18:16;6.03;;;4.90;;
20397;SDS011;10358;49.590;11.030;2022-08-14T10:20:53;6.78;;;4.68;;
20397;SDS011;10358;49.590;11.030;2022-08-14T10:23:22;7.65;;;5.15;;
20397;SDS011;10358;49.590;11.030;2022-08-14T10:25:50;7.05;;;5.45;;
20397;SDS011;10358;49.590;11.030;2022-08-14T10:28:21;8.85;;;4.60;;
20397;SDS011;10358;49.590;11.030;2022-08-14T10:30:48;7.43;;;4.50;;
20397;SDS011;10358;49.590;11.030;2022-08-14T10:33:27;5.53;;;4.80;;
20397;SDS011;10358;49.590;11.030;2022-08-14T10:35:55;5.38;;;4.45;;
20397;SDS011;10358;49.590;11.030;2022-08-14T10:38:31;6.25;;;4.75;;
20397;SDS011;10358;49.590;11.030;2022-08-14T10:43:37;5.72;;;4.45;;
20397;SDS011;10358;49.590;11.030;2022-08-14T10:48:33;5.13;;;4.53;;
20397;SDS011;10358;49.590;11.030;2022-08-14T10:50:58;6.60;;;4.15;;
20397;SDS011;10358;49.590;11.030;2022-08-14T10:53:28;6.00;;;4.80;;
20397;SDS011;10358;49.590;11.030;2022-08-14T10:55:59;7.18;;;5.07;;
20397;SDS011;10358;49.590;11.030;2022-08-14T10:58:28;6.63;;;4.60;;
20397;SDS011;10358;49.590;11.030;2022-08-14T11:00:57;6.78;;;4.63;;
20397;SDS011;10358;49.590;11.030;2022-08-14T11:03:35;5.88;;;4.55;;
20397;SDS011;10358;49.590;11.030;2022-08-14T11:06:12;6.25;;;4.90;;
20397;SDS011;10358;49.590;11.030;2022-08-14T11:08:46;6.43;;;5.00;;
20397;SDS011;10358;49.590;11.030;2022-08-14T11:11:13;6.28;;;4.78;;
20397;SDS011;10358;49.590;11.030;2022-08-14T11:13:40;6.40;;;5.00;;
20397;SDS011;10358;49.590;11.030;2022-08-14T11:16:10;7.72;;;5.07;;
20397;SDS011;10358;49.590;11.030;2022-08-14T11:18:42;5.82;;;4.85;;
20397;SDS011;10358;49.590;11.030;2022-08-14T11:21:11;7.65;;;5.40;;
20397;SDS011;10358;49.590;11.030;2022-08-14T11:23:43;5.88;;;5.05;;
20397;SDS011;10358;49.590;11.030;2022-08-14T11:26:10;5.53;;;4.75;;
20397;SDS011;10358;49.590;11.030;2022-08-14T11:28:40;6.70;;;5.10;;
20397;SDS011;10358;49.590;11.030;2022-08-14T11:31:10;5.65;;;4.68;;
20397;SDS011;10358;49.590;11.030;2022-08-14T11:33:38;5.30;;;4.80;;
20397;SDS011;10358;49.590;11.030;2022-08-14T11:36:06;6.47;;;5.25;;
20397;SDS011;10358;49.590;11.030;2022-08-14T11:38:37;8.23;;;5.18;;
20397;SDS011;10358;49.590;11.030;2022-08-14T11:41:04;5.85;;;4.90;;
20397;SDS011;10358;49.590;11.030;2022-08-14T11:43:31;7.05;;;5.32;;
20397;SDS011;10358;49.590;11.030;2022-08-14T11:46:02;5.93;;;4.88;;
20397;SDS011;10358;49.590;11.030;2022-08-14T11:48:27;7.47;;;4.93;;
20397;SDS011;10358;49.590;11.030;2022-08-14T11:50:53;5.28;;;4.30;;
20397;SDS011;10358;49.590;11.030;2022-08-14T11:53:23;5.38;;;4.65;;
20397;SDS011;10358;49.590;11.030;2022-08-14T11:58:30;6.72;;;5.05;;
20397;SDS011;10358;49.590;11.030;2022-08-14T12:00:58;6.45;;;4.72;;
20397;SDS011;10358;49.590;11.030;2022-08-14T12:06:06;11.38;;;4.95;;
20397;SDS011;10358;49.590;11.030;2022-08-14T12:08:33;6.65;;;4.88;;
20397;SDS011;10358;49.590;11.030;2022-08-14T12:10:59;8.93;;;4.88;;
20397;SDS011;10358;49.590;11.030;2022-08-14T12:13:25;5.43;;;4.75;;
20397;SDS011;10358;49.590;11.030;2022-08-14T12:16:03;7.75;;;4.70;;
20397;SDS011;10358;49.590;11.030;2022-08-14T12:18:41;9.95;;;4.60;;
20397;SDS011;10358;49.590;11.030;2022-08-14T12:21:16;6.25;;;4.90;;
20397;SDS011;10358;49.590;11.030;2022-08-14T12:24:09;5.88;;;4.75;;
20397;SDS011;10358;49.590;11.030;2022-08-14T12:26:35;8.25;;;5.10;;
20397;SDS011;10358;49.590;11.030;2022-08-14T12:29:11;6.45;;;4.88;;
20397;SDS011;10358;49.590;11.030;2022-08-14T12:31:40;7.20;;;4.53;;
20397;SDS011;10358;49.590;11.030;2022-08-14T12:34:07;6.28;;;4.80;;
20397;SDS011;10358;49.590;11.030;2022-08-14T12:36:35;6.25;;;5.03;;
20397;SDS011;10358;49.590;11.030;2022-08-14T12:39:02;5.40;;;4.70;;
20397;SDS011;10358;49.590;11.030;2022-08-14T12:41:30;6.00;;;4.38;;
20397;SDS011;10358;49.590;11.030;2022-08-14T12:44:01;5.20;;;4.65;;
20397;SDS011;10358;49.590;11.030;2022-08-14T12:46:32;7.45;;;5.22;;
20397;SDS011;10358;49.590;11.030;2022-08-14T12:49:11;6.75;;;5.00;;
20397;SDS011;10358;49.590;11.030;2022-08-14T12:51:41;6.18;;;5.03;;
20397;SDS011;10358;49.590;11.030;2022-08-14T12:54:12;7.57;;;4.75;;
20397;SDS011;10358;49.590;11.030;2022-08-14T12:56:42;5.30;;;4.57;;
20397;SDS011;10358;49.590;11.030;2022-08-14T12:59:10;5.95;;;4.90;;
20397;SDS011;10358;49.590;11.030;2022-08-14T13:01:36;5.95;;;4.40;;
20397;SDS011;10358;49.590;11.030;2022-08-14T13:06:37;12.27;;;4.40;;
20397;SDS011;10358;49.590;11.030;2022-08-14T13:09:05;5.50;;;4.68;;
20397;SDS011;10358;49.590;11.030;2022-08-14T13:11:40;7.20;;;4.47;;
20397;SDS011;10358;49.590;11.030;2022-08-14T13:14:13;7.65;;;4.80;;
20397;SDS011;10358;49.590;11.030;2022-08-14T13:16:42;5.32;;;4.68;;
20397;SDS011;10358;49.590;11.030;2022-08-14T13:19:13;8.57;;;4.40;;
20397;SDS011;10358;49.590;11.030;2022-08-14T13:21:40;5.78;;;4.60;;
20397;SDS011;10358;49.590;11.030;2022-08-14T13:24:10;5.28;;;4.40;;
20397;SDS011;10358;49.590;11.030;2022-08-14T13:26:41;5.13;;;4.10;;
20397;SDS011;10358;49.590;11.030;2022-08-14T13:29:09;5.68;;;4.20;;
20397;SDS011;10358;49.590;11.030;2022-08-14T13:31:36;5.05;;;4.32;;
20397;SDS011;10358;49.590;11.030;2022-08-14T13:34:03;6.32;;;4.22;;
20397;SDS011;10358;49.590;11.030;2022-08-14T13:36:29;5.75;;;3.88;;
20397;SDS011;10358;49.590;11.030;2022-08-14T13:38:56;5.72;;;3.92;;
20397;SDS011;10358;49.590;11.030;2022-08-14T13:41:30;8.10;;;4.60;;
20397;SDS011;10358;49.590;11.030;2022-08-14T13:44:02;4.13;;;3.72;;
20397;SDS011;10358;49.590;11.030;2022-08-14T13:46:28;5.97;;;3.83;;
20397;SDS011;10358;49.590;11.030;2022-08-14T13:48:57;4.72;;;3.90;;
20397;SDS011;10358;49.590;11.030;2022-08-14T13:51:23;5.85;;;4.05;;
20397;SDS011;10358;49.590;11.030;2022-08-14T13:53:52;5.05;;;3.90;;
20397;SDS011;10358;49.590;11.030;2022-08-14T13:56:21;6.80;;;3.50;;
20397;SDS011;10358;49.590;11.030;2022-08-14T13:58:52;4.72;;;3.60;;
20397;SDS011;10358;49.590;11.030;2022-08-14T14:01:22;5.93;;;3.80;;
20397;SDS011;10358;49.590;11.030;2022-08-14T14:03:58;3.85;;;3.38;;
20397;SDS011;10358;49.590;11.030;2022-08-14T14:06:25;4.30;;;3.58;;
20397;SDS011;10358;49.590;11.030;2022-08-14T14:08:52;6.90;;;4.45;;
20397;SDS011;10358;49.590;11.030;2022-08-14T14:11:19;4.22;;;3.83;;
20397;SDS011;10358;49.590;11.030;2022-08-14T14:13:53;5.10;;;3.65;;
20397;SDS011;10358;49.590;11.030;2022-08-14T14:16:21;3.88;;;3.40;;
20397;SDS011;10358;49.590;11.030;2022-08-14T14:18:48;4.30;;;3.55;;
20397;SDS011;10358;49.590;11.030;2022-08-14T14:21:20;5.60;;;3.72;;
20397;SDS011;10358;49.590;11.030;2022-08-14T14:23:48;4.45;;;3.70;;
20397;SDS011;10358;49.590;11.030;2022-08-14T14:26:17;4.13;;;3.70;;
20397;SDS011;10358;49.590;11.030;2022-08-14T14:28:46;7.10;;;3.72;;
20397;SDS011;10358;49.590;11.030;2022-08-14T14:31:18;3.92;;;3.60;;
20397;SDS011;10358;49.590;11.030;2022-08-14T14:33:48;5.18;;;3.63;;
20397;SDS011;10358;49.590;11.030;2022-08-14T14:36:23;5.95;;;3.55;;
20397;SDS011;10358;49.590;11.030;2022-08-14T14:38:54;4.40;;;3.65;;
20397;SDS011;10358;49.590;11.030;2022-08-14T14:41:22;5.30;;;3.45;;
20397;SDS011;10358;49.590;11.030;2022-08-14T14:43:50;5.25;;;3.55;;
20397;SDS011;10358;49.590;11.030;2022-08-14T14:46:17;4.30;;;3.85;;
20397;SDS011;10358;49.590;11.030;2022-08-14T14:48:43;4.47;;;3.75;;
20397;SDS011;10358;49.590;11.030;2022-08-14T14:51:10;4.20;;;3.80;;
20397;SDS011;10358;49.590;11.030;2022-08-14T14:53:38;4.90;;;3.90;;
20397;SDS011;10358;49.590;11.030;2022-08-14T14:56:05;4.53;;;3.70;;
20397;SDS011;10358;49.590;11.030;2022-08-14T14:58:34;3.88;;;3.47;;
20397;SDS011;10358;49.590;11.030;2022-08-14T15:01:01;4.32;;;3.78;;
20397;SDS011;10358;49.590;11.030;2022-08-14T15:03:28;4.22;;;3.50;;
20397;SDS011;10358;49.590;11.030;2022-08-14T15:05:54;5.32;;;3.47;;
20397;SDS011;10358;49.590;11.030;2022-08-14T15:08:20;6.65;;;3.63;;
20397;SDS011;10358;49.590;11.030;2022-08-14T15:10:46;3.67;;;3.38;;
20397;SDS011;10358;49.590;11.030;2022-08-14T15:13:11;3.85;;;3.53;;
20397;SDS011;10358;49.590;11.030;2022-08-14T15:15:37;5.82;;;3.80;;